sensor_id;sensor_type;location;lat;lon;timestamp;pressure;altitude;pressure_sealevel;temperature;humidity
47811;BME280;33575;52.600;7.318;2023-04-15T00:00:21;100810.50;;;8.01;79.97
47811;BME280;33575;52.600;7.318;2023-04-15T00:02:52;100804.81;;;8.00;79.73
47811;BME280;33575;52.600;7.318;2023-04-15T00:05:22;100806.96;;;7.95;79.82
47811;BME280;33575;52.600;7.318;2023-04-15T00:07:53;100806.49;;;7.91;79.85
47811;BME280;33575;52.600;7.318;2023-04-15T00:10:24;100802.47;;;7.85;80.87
47811;BME280;33575;52.600;7.318;2023-04-15T00:12:54;100802.37;;;7.81;80.65
47811;BME280;33575;52.600;7.318;2023-04-15T00:15:25;100807.77;;;7.80;80.72
47811;BME280;33575;52.600;7.318;2023-04-15T00:17:56;100805.49;;;7.78;80.01
47811;BME280;33575;52.600;7.318;2023-04-15T00:20:27;100807.06;;;7.81;79.45
47811;BME280;33575;52.600;7.318;2023-04-15T00:22:57;100806.18;;;7.79;80.02
47811;BME280;33575;52.600;7.318;2023-04-15T00:25:28;100807.62;;;7.80;79.93
47811;BME280;33575;52.600;7.318;2023-04-15T00:27:59;100810.01;;;7.79;79.67
47811;BME280;33575;52.600;7.318;2023-04-15T00:30:29;100809.55;;;7.81;79.35
47811;BME280;33575;52.600;7.318;2023-04-15T00:33:00;100810.82;;;7.82;79.38
47811;BME280;33575;52.600;7.318;2023-04-15T00:35:30;100812.38;;;7.78;80.11
47811;BME280;33575;52.600;7.318;2023-04-15T00:38:01;100809.37;;;7.77;80.11
47811;BME280;33575;52.600;7.318;2023-04-15T00:40:32;100810.12;;;7.69;80.98
47811;BME280;33575;52.600;7.318;2023-04-15T00:43:02;100809.25;;;7.61;81.26
47811;BME280;33575;52.600;7.318;2023-04-15T00:45:33;100808.20;;;7.55;81.34
47811;BME280;33575;52.600;7.318;2023-04-15T00:48:04;100811.03;;;7.52;81.23
47811;BME280;33575;52.600;7.318;2023-04-15T00:50:34;100807.16;;;7.49;81.38
47811;BME280;33575;52.600;7.318;2023-04-15T00:53:04;100811.18;;;7.45;81.87
47811;BME280;33575;52.600;7.318;2023-04-15T00:55:35;100816.74;;;7.29;83.40
47811;BME280;33575;52.600;7.318;2023-04-15T00:58:06;100815.11;;;7.29;82.23
47811;BME280;33575;52.600;7.318;2023-04-15T01:00:36;100818.78;;;7.25;82.82
47811;BME280;33575;52.600;7.318;2023-04-15T01:03:07;100817.33;;;7.17;83.10
47811;BME280;33575;52.600;7.318;2023-04-15T01:05:37;100816.15;;;7.07;84.01
47811;BME280;33575;52.600;7.318;2023-04-15T01:08:08;100814.68;;;7.01;84.08
47811;BME280;33575;52.600;7.318;2023-04-15T01:10:38;100812.89;;;6.99;84.55
47811;BME280;33575;52.600;7.318;2023-04-15T01:13:09;100815.12;;;6.95;84.60
47811;BME280;33575;52.600;7.318;2023-04-15T01:15:40;100814.17;;;6.92;84.28
47811;BME280;33575;52.600;7.318;2023-04-15T01:18:10;100816.28;;;6.89;84.39
47811;BME280;33575;52.600;7.318;2023-04-15T01:20:41;100815.99;;;6.91;84.21
47811;BME280;33575;52.600;7.318;2023-04-15T01:23:12;100816.34;;;6.91;84.14
47811;BME280;33575;52.600;7.318;2023-04-15T01:25:42;100817.03;;;6.97;83.23
47811;BME280;33575;52.600;7.318;2023-04-15T01:28:12;100816.77;;;7.05;82.38
47811;BME280;33575;52.600;7.318;2023-04-15T01:30:42;100816.80;;;7.07;82.88
47811;BME280;33575;52.600;7.318;2023-04-15T01:33:13;100815.66;;;7.02;83.27
47811;BME280;33575;52.600;7.318;2023-04-15T01:35:44;100815.21;;;7.00;83.29
47811;BME280;33575;52.600;7.318;2023-04-15T01:38:14;100815.83;;;7.03;82.86
47811;BME280;33575;52.600;7.318;2023-04-15T01:40:45;100818.15;;;7.02;83.28
47811;BME280;33575;52.600;7.318;2023-04-15T01:43:15;100813.82;;;7.05;82.85
47811;BME280;33575;52.600;7.318;2023-04-15T01:45:46;100812.82;;;7.05;82.84
47811;BME280;33575;52.600;7.318;2023-04-15T01:48:16;100812.36;;;7.01;83.57
47811;BME280;33575;52.600;7.318;2023-04-15T01:50:47;100813.06;;;6.89;84.18
47811;BME280;33575;52.600;7.318;2023-04-15T01:53:17;100810.79;;;6.80;84.18
47811;BME280;33575;52.600;7.318;2023-04-15T01:55:48;100807.35;;;6.75;84.54
47811;BME280;33575;52.600;7.318;2023-04-15T01:58:18;100811.47;;;6.66;84.61
47811;BME280;33575;52.600;7.318;2023-04-15T02:00:49;100809.99;;;6.55;85.05
47811;BME280;33575;52.600;7.318;2023-04-15T02:03:19;100811.22;;;6.52;84.65
47811;BME280;33575;52.600;7.318;2023-04-15T02:05:50;100814.93;;;6.46;85.36
47811;BME280;33575;52.600;7.318;2023-04-15T02:08:21;100819.31;;;6.38;85.91
47811;BME280;33575;52.600;7.318;2023-04-15T02:10:51;100819.22;;;6.28;85.73
47811;BME280;33575;52.600;7.318;2023-04-15T02:13:21;100820.29;;;6.24;86.31
47811;BME280;33575;52.600;7.318;2023-04-15T02:15:53;100823.01;;;6.23;86.41
47811;BME280;33575;52.600;7.318;2023-04-15T02:18:22;100817.54;;;6.19;83.67
47811;BME280;33575;52.600;7.318;2023-04-15T02:20:52;100821.81;;;6.06;80.50
47811;BME280;33575;52.600;7.318;2023-04-15T02:23:23;100820.40;;;5.87;79.71
47811;BME280;33575;52.600;7.318;2023-04-15T02:25:55;100824.84;;;5.67;80.21
47811;BME280;33575;52.600;7.318;2023-04-15T02:28:24;100827.47;;;5.47;81.37
47811;BME280;33575;52.600;7.318;2023-04-15T02:30:54;100826.91;;;5.38;82.65
47811;BME280;33575;52.600;7.318;2023-04-15T02:33:25;100830.78;;;5.31;86.60
47811;BME280;33575;52.600;7.318;2023-04-15T02:35:55;100835.60;;;5.23;89.49
47811;BME280;33575;52.600;7.318;2023-04-15T02:38:25;100834.73;;;5.32;92.08
47811;BME280;33575;52.600;7.318;2023-04-15T02:40:57;100835.89;;;5.36;90.98
47811;BME280;33575;52.600;7.318;2023-04-15T02:43:27;100839.46;;;5.42;90.21
47811;BME280;33575;52.600;7.318;2023-04-15T02:45:58;100840.80;;;5.51;88.72
47811;BME280;33575;52.600;7.318;2023-04-15T02:48:28;100842.12;;;5.58;85.81
47811;BME280;33575;52.600;7.318;2023-04-15T02:53:29;100844.63;;;5.64;84.52
47811;BME280;33575;52.600;7.318;2023-04-15T02:55:59;100845.08;;;5.68;83.77
47811;BME280;33575;52.600;7.318;2023-04-15T02:58:29;100841.84;;;5.70;83.40
47811;BME280;33575;52.600;7.318;2023-04-15T03:01:00;100842.46;;;5.66;82.91
47811;BME280;33575;52.600;7.318;2023-04-15T03:03:31;100845.62;;;5.58;82.54
47811;BME280;33575;52.600;7.318;2023-04-15T03:06:01;100845.73;;;5.53;82.88
47811;BME280;33575;52.600;7.318;2023-04-15T03:08:32;100848.59;;;5.54;82.55
47811;BME280;33575;52.600;7.318;2023-04-15T03:11:02;100848.91;;;5.56;82.27
47811;BME280;33575;52.600;7.318;2023-04-15T03:13:33;100850.78;;;5.56;81.72
47811;BME280;33575;52.600;7.318;2023-04-15T03:16:04;100853.89;;;5.55;81.91
47811;BME280;33575;52.600;7.318;2023-04-15T03:18:34;100855.20;;;5.55;81.17
47811;BME280;33575;52.600;7.318;2023-04-15T03:21:04;100859.30;;;5.47;81.06
47811;BME280;33575;52.600;7.318;2023-04-15T03:23:35;100864.76;;;5.37;81.27
47811;BME280;33575;52.600;7.318;2023-04-15T03:26:05;100868.67;;;5.30;81.57
47811;BME280;33575;52.600;7.318;2023-04-15T03:28:36;100872.06;;;5.20;81.57
47811;BME280;33575;52.600;7.318;2023-04-15T03:31:06;100872.56;;;5.13;81.38
47811;BME280;33575;52.600;7.318;2023-04-15T03:33:36;100870.44;;;5.07;81.42
47811;BME280;33575;52.600;7.318;2023-04-15T03:36:07;100873.72;;;5.05;81.46
47811;BME280;33575;52.600;7.318;2023-04-15T03:38:38;100871.78;;;5.00;81.59
47811;BME280;33575;52.600;7.318;2023-04-15T03:41:08;100871.62;;;4.96;81.66
47811;BME280;33575;52.600;7.318;2023-04-15T03:43:38;100871.30;;;4.96;81.64
47811;BME280;33575;52.600;7.318;2023-04-15T03:46:09;100875.51;;;4.96;82.24
47811;BME280;33575;52.600;7.318;2023-04-15T03:48:39;100874.54;;;4.96;83.22
47811;BME280;33575;52.600;7.318;2023-04-15T03:51:09;100872.10;;;4.96;84.51
47811;BME280;33575;52.600;7.318;2023-04-15T03:53:39;100872.33;;;4.98;84.97
47811;BME280;33575;52.600;7.318;2023-04-15T03:56:10;100875.73;;;4.91;83.45
47811;BME280;33575;52.600;7.318;2023-04-15T03:58:40;100874.53;;;4.74;83.27
47811;BME280;33575;52.600;7.318;2023-04-15T04:01:11;100873.34;;;4.58;83.64
47811;BME280;33575;52.600;7.318;2023-04-15T04:03:41;100873.47;;;4.38;84.31
47811;BME280;33575;52.600;7.318;2023-04-15T04:06:11;100876.67;;;4.26;84.52
47811;BME280;33575;52.600;7.318;2023-04-15T04:08:42;100873.49;;;4.17;85.13
47811;BME280;33575;52.600;7.318;2023-04-15T04:11:13;100876.11;;;4.11;85.67
47811;BME280;33575;52.600;7.318;2023-04-15T04:13:43;100880.32;;;4.07;85.29
47811;BME280;33575;52.600;7.318;2023-04-15T04:16:14;100877.18;;;4.05;85.53
47811;BME280;33575;52.600;7.318;2023-04-15T04:18:44;100874.22;;;4.04;85.34
47811;BME280;33575;52.600;7.318;2023-04-15T04:21:15;100878.06;;;3.99;85.24
47811;BME280;33575;52.600;7.318;2023-04-15T04:23:45;100878.67;;;3.95;85.65
47811;BME280;33575;52.600;7.318;2023-04-15T04:26:16;100880.28;;;3.89;86.71
47811;BME280;33575;52.600;7.318;2023-04-15T04:28:47;100880.59;;;3.79;86.98
47811;BME280;33575;52.600;7.318;2023-04-15T04:31:17;100880.20;;;3.74;86.77
47811;BME280;33575;52.600;7.318;2023-04-15T04:33:48;100877.19;;;3.74;86.75
47811;BME280;33575;52.600;7.318;2023-04-15T04:36:18;100877.80;;;3.76;86.87
47811;BME280;33575;52.600;7.318;2023-04-15T04:38:49;100877.62;;;3.73;88.26
47811;BME280;33575;52.600;7.318;2023-04-15T04:41:20;100878.81;;;3.70;87.65
47811;BME280;33575;52.600;7.318;2023-04-15T04:43:50;100879.20;;;3.73;87.30
47811;BME280;33575;52.600;7.318;2023-04-15T04:46:21;100888.05;;;3.71;92.04
47811;BME280;33575;52.600;7.318;2023-04-15T04:48:51;100888.48;;;3.83;91.14
47811;BME280;33575;52.600;7.318;2023-04-15T04:51:22;100887.04;;;3.96;90.06
47811;BME280;33575;52.600;7.318;2023-04-15T04:53:53;100890.51;;;4.03;88.32
47811;BME280;33575;52.600;7.318;2023-04-15T04:56:23;100889.34;;;3.99;87.34
47811;BME280;33575;52.600;7.318;2023-04-15T04:58:54;100891.58;;;3.94;87.58
47811;BME280;33575;52.600;7.318;2023-04-15T05:01:25;100895.42;;;3.96;87.13
47811;BME280;33575;52.600;7.318;2023-04-15T05:03:55;100902.13;;;3.95;87.33
47811;BME280;33575;52.600;7.318;2023-04-15T05:06:25;100906.27;;;3.99;87.48
47811;BME280;33575;52.600;7.318;2023-04-15T05:08:56;100911.63;;;3.97;87.51
47811;BME280;33575;52.600;7.318;2023-04-15T05:11:26;100915.10;;;3.95;87.48
47811;BME280;33575;52.600;7.318;2023-04-15T05:13:56;100918.32;;;3.95;87.52
47811;BME280;33575;52.600;7.318;2023-04-15T05:16:27;100921.96;;;3.88;87.58
47811;BME280;33575;52.600;7.318;2023-04-15T05:18:57;100925.68;;;3.85;87.61
47811;BME280;33575;52.600;7.318;2023-04-15T05:21:28;100931.14;;;3.81;87.69
47811;BME280;33575;52.600;7.318;2023-04-15T05:23:58;100935.59;;;3.77;87.78
47811;BME280;33575;52.600;7.318;2023-04-15T05:26:28;100941.78;;;3.72;88.05
47811;BME280;33575;52.600;7.318;2023-04-15T05:28:59;100944.59;;;3.64;89.59
47811;BME280;33575;52.600;7.318;2023-04-15T05:31:29;100947.17;;;3.61;90.17
47811;BME280;33575;52.600;7.318;2023-04-15T05:34:00;100950.17;;;3.61;92.93
47811;BME280;33575;52.600;7.318;2023-04-15T05:36:30;100951.62;;;3.73;93.97
47811;BME280;33575;52.600;7.318;2023-04-15T05:39:01;100953.18;;;3.86;92.88
47811;BME280;33575;52.600;7.318;2023-04-15T05:41:31;100950.80;;;3.87;90.91
47811;BME280;33575;52.600;7.318;2023-04-15T05:44:01;100956.19;;;3.78;91.55
47811;BME280;33575;52.600;7.318;2023-04-15T05:46:32;100959.17;;;3.73;92.60
47811;BME280;33575;52.600;7.318;2023-04-15T05:49:03;100961.25;;;3.76;92.56
47811;BME280;33575;52.600;7.318;2023-04-15T05:51:33;100965.93;;;3.77;93.16
47811;BME280;33575;52.600;7.318;2023-04-15T05:54:03;100966.75;;;3.82;92.33
47811;BME280;33575;52.600;7.318;2023-04-15T05:56:34;100968.79;;;3.89;91.92
47811;BME280;33575;52.600;7.318;2023-04-15T05:59:05;100972.82;;;3.95;91.41
47811;BME280;33575;52.600;7.318;2023-04-15T06:01:35;100975.15;;;3.93;91.67
47811;BME280;33575;52.600;7.318;2023-04-15T06:04:05;100976.08;;;3.98;91.71
47811;BME280;33575;52.600;7.318;2023-04-15T06:06:36;100979.16;;;4.00;92.07
47811;BME280;33575;52.600;7.318;2023-04-15T06:09:06;100982.31;;;4.05;91.92
47811;BME280;33575;52.600;7.318;2023-04-15T06:11:37;100985.97;;;4.19;91.59
47811;BME280;33575;52.600;7.318;2023-04-15T06:14:07;100988.01;;;4.25;97.46
47811;BME280;33575;52.600;7.318;2023-04-15T06:16:37;100991.01;;;4.29;99.00
47811;BME280;33575;52.600;7.318;2023-04-15T06:19:08;100989.67;;;4.49;97.43
47811;BME280;33575;52.600;7.318;2023-04-15T06:21:39;100991.92;;;4.57;96.31
47811;BME280;33575;52.600;7.318;2023-04-15T06:24:09;100995.26;;;4.67;97.18
47811;BME280;33575;52.600;7.318;2023-04-15T06:26:40;100996.27;;;4.57;98.78
47811;BME280;33575;52.600;7.318;2023-04-15T06:29:10;100998.43;;;4.57;99.61
47811;BME280;33575;52.600;7.318;2023-04-15T06:31:41;100999.87;;;4.50;100.00
47811;BME280;33575;52.600;7.318;2023-04-15T06:34:11;101004.71;;;4.50;100.00
47811;BME280;33575;52.600;7.318;2023-04-15T06:36:41;101009.76;;;4.51;100.00
47811;BME280;33575;52.600;7.318;2023-04-15T06:39:12;101012.89;;;4.59;100.00
47811;BME280;33575;52.600;7.318;2023-04-15T06:41:43;101012.35;;;4.64;100.00
47811;BME280;33575;52.600;7.318;2023-04-15T06:44:13;101015.11;;;4.64;100.00
47811;BME280;33575;52.600;7.318;2023-04-15T06:46:44;101014.14;;;4.80;100.00
47811;BME280;33575;52.600;7.318;2023-04-15T06:49:14;101017.43;;;4.72;100.00
47811;BME280;33575;52.600;7.318;2023-04-15T06:51:44;101020.61;;;4.78;100.00
47811;BME280;33575;52.600;7.318;2023-04-15T06:54:14;101023.30;;;4.84;100.00
47811;BME280;33575;52.600;7.318;2023-04-15T06:56:45;101029.94;;;4.87;100.00
47811;BME280;33575;52.600;7.318;2023-04-15T06:59:15;101024.06;;;4.92;100.00
47811;BME280;33575;52.600;7.318;2023-04-15T07:01:46;101024.30;;;4.95;100.00
47811;BME280;33575;52.600;7.318;2023-04-15T07:04:16;101022.40;;;5.03;100.00
47811;BME280;33575;52.600;7.318;2023-04-15T07:06:47;101021.45;;;5.04;100.00
47811;BME280;33575;52.600;7.318;2023-04-15T07:09:17;101023.74;;;5.19;100.00
47811;BME280;33575;52.600;7.318;2023-04-15T07:11:48;101025.11;;;5.20;100.00
47811;BME280;33575;52.600;7.318;2023-04-15T07:14:18;101018.05;;;5.33;100.00
47811;BME280;33575;52.600;7.318;2023-04-15T07:16:49;101016.96;;;5.27;100.00
47811;BME280;33575;52.600;7.318;2023-04-15T07:19:19;101019.66;;;5.26;100.00
47811;BME280;33575;52.600;7.318;2023-04-15T07:21:50;101023.14;;;5.33;100.00
47811;BME280;33575;52.600;7.318;2023-04-15T07:24:20;101026.26;;;5.13;100.00
47811;BME280;33575;52.600;7.318;2023-04-15T07:26:50;101026.65;;;5.14;100.00
47811;BME280;33575;52.600;7.318;2023-04-15T07:29:21;101031.17;;;5.12;100.00
47811;BME280;33575;52.600;7.318;2023-04-15T07:31:51;101029.14;;;5.31;100.00
47811;BME280;33575;52.600;7.318;2023-04-15T07:34:22;101030.12;;;5.40;100.00
47811;BME280;33575;52.600;7.318;2023-04-15T07:36:52;101033.89;;;5.21;100.00
47811;BME280;33575;52.600;7.318;2023-04-15T07:39:23;101032.24;;;5.28;100.00
47811;BME280;33575;52.600;7.318;2023-04-15T07:41:54;101034.65;;;5.34;100.00
47811;BME280;33575;52.600;7.318;2023-04-15T07:44:24;101034.28;;;5.47;100.00
47811;BME280;33575;52.600;7.318;2023-04-15T07:46:55;101034.85;;;5.64;100.00
47811;BME280;33575;52.600;7.318;2023-04-15T07:49:25;101036.29;;;5.57;100.00
47811;BME280;33575;52.600;7.318;2023-04-15T07:51:55;101036.18;;;5.71;100.00
47811;BME280;33575;52.600;7.318;2023-04-15T07:54:25;101038.66;;;5.82;100.00
47811;BME280;33575;52.600;7.318;2023-04-15T07:56:56;101038.49;;;5.96;100.00
47811;BME280;33575;52.600;7.318;2023-04-15T07:59:26;101041.32;;;5.97;100.00
47811;BME280;33575;52.600;7.318;2023-04-15T08:01:56;101041.30;;;6.05;100.00
47811;BME280;33575;52.600;7.318;2023-04-15T08:04:27;101043.35;;;6.10;100.00
47811;BME280;33575;52.600;7.318;2023-04-15T08:06:57;101045.45;;;6.37;100.00
47811;BME280;33575;52.600;7.318;2023-04-15T08:09:27;101049.50;;;6.52;100.00
47811;BME280;33575;52.600;7.318;2023-04-15T08:11:58;101048.49;;;6.69;100.00
47811;BME280;33575;52.600;7.318;2023-04-15T08:14:28;101050.55;;;6.40;100.00
47811;BME280;33575;52.600;7.318;2023-04-15T08:16:59;101047.93;;;6.54;100.00
47811;BME280;33575;52.600;7.318;2023-04-15T08:19:29;101050.86;;;6.37;100.00
47811;BME280;33575;52.600;7.318;2023-04-15T08:21:59;101047.70;;;6.43;100.00
47811;BME280;33575;52.600;7.318;2023-04-15T08:24:30;101049.13;;;6.61;100.00
47811;BME280;33575;52.600;7.318;2023-04-15T08:27:00;101048.43;;;6.70;100.00
47811;BME280;33575;52.600;7.318;2023-04-15T08:29:31;101052.16;;;6.52;100.00
47811;BME280;33575;52.600;7.318;2023-04-15T08:32:01;101048.78;;;6.82;100.00
47811;BME280;33575;52.600;7.318;2023-04-15T08:34:31;101047.24;;;6.68;100.00
47811;BME280;33575;52.600;7.318;2023-04-15T08:37:02;101048.26;;;6.75;100.00
47811;BME280;33575;52.600;7.318;2023-04-15T08:39:32;101057.81;;;6.61;100.00
47811;BME280;33575;52.600;7.318;2023-04-15T08:42:03;101053.41;;;6.60;100.00
47811;BME280;33575;52.600;7.318;2023-04-15T08:44:34;101061.67;;;6.67;100.00
47811;BME280;33575;52.600;7.318;2023-04-15T08:47:07;101061.16;;;6.59;100.00
47811;BME280;33575;52.600;7.318;2023-04-15T08:49:35;101063.77;;;6.67;100.00
47811;BME280;33575;52.600;7.318;2023-04-15T08:52:03;101065.06;;;6.67;100.00
47811;BME280;33575;52.600;7.318;2023-04-15T08:54:34;101067.19;;;6.63;100.00
47811;BME280;33575;52.600;7.318;2023-04-15T08:57:05;101068.12;;;6.81;100.00
47811;BME280;33575;52.600;7.318;2023-04-15T08:59:35;101062.94;;;7.00;99.93
47811;BME280;33575;52.600;7.318;2023-04-15T09:02:05;101070.04;;;7.08;99.88
47811;BME280;33575;52.600;7.318;2023-04-15T09:04:35;101071.04;;;7.11;99.19
47811;BME280;33575;52.600;7.318;2023-04-15T09:07:06;101068.82;;;7.05;99.69
47811;BME280;33575;52.600;7.318;2023-04-15T09:09:37;101076.03;;;7.09;99.15
47811;BME280;33575;52.600;7.318;2023-04-15T09:12:07;101073.00;;;7.22;98.41
47811;BME280;33575;52.600;7.318;2023-04-15T09:14:39;101073.99;;;7.07;98.63
47811;BME280;33575;52.600;7.318;2023-04-15T09:17:09;101077.43;;;7.14;98.93
47811;BME280;33575;52.600;7.318;2023-04-15T09:19:38;101075.57;;;7.25;98.77
47811;BME280;33575;52.600;7.318;2023-04-15T09:22:09;101078.92;;;7.39;98.45
47811;BME280;33575;52.600;7.318;2023-04-15T09:24:40;101081.94;;;7.35;97.86
47811;BME280;33575;52.600;7.318;2023-04-15T09:27:10;101081.18;;;7.35;98.02
47811;BME280;33575;52.600;7.318;2023-04-15T09:29:41;101080.40;;;7.34;97.68
47811;BME280;33575;52.600;7.318;2023-04-15T09:32:12;101082.49;;;7.40;97.45
47811;BME280;33575;52.600;7.318;2023-04-15T09:34:42;101084.97;;;7.49;97.87
47811;BME280;33575;52.600;7.318;2023-04-15T09:37:12;101090.73;;;7.42;97.90
47811;BME280;33575;52.600;7.318;2023-04-15T09:39:48;101096.96;;;7.63;97.26
47811;BME280;33575;52.600;7.318;2023-04-15T09:42:13;101093.43;;;7.57;96.79
47811;BME280;33575;52.600;7.318;2023-04-15T09:44:44;101098.44;;;7.61;96.81
47811;BME280;33575;52.600;7.318;2023-04-15T09:49:54;101100.74;;;7.74;96.86
47811;BME280;33575;52.600;7.318;2023-04-15T09:52:16;101106.44;;;7.83;96.58
47811;BME280;33575;52.600;7.318;2023-04-15T09:54:46;101108.01;;;7.84;95.78
47811;BME280;33575;52.600;7.318;2023-04-15T09:57:17;101111.12;;;7.88;95.70
47811;BME280;33575;52.600;7.318;2023-04-15T09:59:48;101111.28;;;8.05;95.29
47811;BME280;33575;52.600;7.318;2023-04-15T10:02:19;101112.77;;;7.96;95.89
47811;BME280;33575;52.600;7.318;2023-04-15T10:04:49;101117.38;;;7.90;95.86
47811;BME280;33575;52.600;7.318;2023-04-15T10:07:21;101117.58;;;7.86;96.02
47811;BME280;33575;52.600;7.318;2023-04-15T10:09:50;101119.10;;;7.99;96.50
47811;BME280;33575;52.600;7.318;2023-04-15T10:12:21;101121.59;;;7.91;96.83
47811;BME280;33575;52.600;7.318;2023-04-15T10:14:55;101122.79;;;7.75;96.88
47811;BME280;33575;52.600;7.318;2023-04-15T10:17:22;101122.60;;;7.96;96.95
47811;BME280;33575;52.600;7.318;2023-04-15T10:19:53;101127.22;;;7.84;96.97
47811;BME280;33575;52.600;7.318;2023-04-15T10:22:23;101126.81;;;7.82;97.96
47811;BME280;33575;52.600;7.318;2023-04-15T10:24:55;101129.44;;;7.69;99.56
47811;BME280;33575;52.600;7.318;2023-04-15T10:27:26;101133.54;;;7.76;99.08
47811;BME280;33575;52.600;7.318;2023-04-15T10:29:56;101135.09;;;7.77;100.00
47811;BME280;33575;52.600;7.318;2023-04-15T10:32:26;101133.12;;;7.68;99.32
47811;BME280;33575;52.600;7.318;2023-04-15T10:34:56;101135.01;;;7.88;100.00
47811;BME280;33575;52.600;7.318;2023-04-15T10:37:33;101135.26;;;7.84;100.00
47811;BME280;33575;52.600;7.318;2023-04-15T10:39:57;101137.93;;;7.89;100.00
47811;BME280;33575;52.600;7.318;2023-04-15T10:42:33;101142.40;;;7.71;100.00
47811;BME280;33575;52.600;7.318;2023-04-15T10:44:59;101137.90;;;7.74;100.00
47811;BME280;33575;52.600;7.318;2023-04-15T10:47:31;101138.56;;;7.63;100.00
47811;BME280;33575;52.600;7.318;2023-04-15T10:50:00;101137.17;;;7.71;100.00
47811;BME280;33575;52.600;7.318;2023-04-15T10:52:30;101134.01;;;7.87;100.00
47811;BME280;33575;52.600;7.318;2023-04-15T10:55:02;101134.86;;;7.58;100.00
47811;BME280;33575;52.600;7.318;2023-04-15T10:57:34;101139.18;;;7.49;100.00
47811;BME280;33575;52.600;7.318;2023-04-15T11:00:09;101142.25;;;7.74;100.00
47811;BME280;33575;52.600;7.318;2023-04-15T11:02:40;101142.20;;;7.61;100.00
47811;BME280;33575;52.600;7.318;2023-04-15T11:05:04;101146.40;;;7.67;100.00
47811;BME280;33575;52.600;7.318;2023-04-15T11:07:37;101149.57;;;7.73;100.00
47811;BME280;33575;52.600;7.318;2023-04-15T11:12:36;101153.46;;;7.63;100.00
47811;BME280;33575;52.600;7.318;2023-04-15T11:17:37;101151.19;;;7.73;100.00
47811;BME280;33575;52.600;7.318;2023-04-15T11:20:08;101149.92;;;7.88;100.00
47811;BME280;33575;52.600;7.318;2023-04-15T11:22:38;101152.51;;;8.00;100.00
47811;BME280;33575;52.600;7.318;2023-04-15T11:25:08;101153.74;;;7.75;100.00
47811;BME280;33575;52.600;7.318;2023-04-15T11:27:39;101149.64;;;7.69;100.00
47811;BME280;33575;52.600;7.318;2023-04-15T11:30:17;101152.36;;;7.74;100.00
47811;BME280;33575;52.600;7.318;2023-04-15T11:32:41;101155.75;;;7.66;100.00
47811;BME280;33575;52.600;7.318;2023-04-15T11:35:10;101159.60;;;7.72;100.00
47811;BME280;33575;52.600;7.318;2023-04-15T11:37:41;101164.43;;;7.67;100.00
47811;BME280;33575;52.600;7.318;2023-04-15T11:40:12;101164.94;;;7.60;100.00
47811;BME280;33575;52.600;7.318;2023-04-15T11:45:15;101173.67;;;7.68;100.00
47811;BME280;33575;52.600;7.318;2023-04-15T11:47:44;101170.26;;;7.76;100.00
47811;BME280;33575;52.600;7.318;2023-04-15T11:50:15;101172.69;;;7.84;100.00
47811;BME280;33575;52.600;7.318;2023-04-15T11:52:53;101171.13;;;7.92;100.00
47811;BME280;33575;52.600;7.318;2023-04-15T11:55:16;101169.91;;;7.81;100.00
47811;BME280;33575;52.600;7.318;2023-04-15T11:57:46;101177.24;;;7.85;100.00
47811;BME280;33575;52.600;7.318;2023-04-15T12:00:19;101181.79;;;7.85;100.00
47811;BME280;33575;52.600;7.318;2023-04-15T12:02:48;101180.92;;;7.84;100.00
47811;BME280;33575;52.600;7.318;2023-04-15T12:05:18;101184.37;;;7.66;100.00
47811;BME280;33575;52.600;7.318;2023-04-15T12:07:56;101184.94;;;7.43;100.00
47811;BME280;33575;52.600;7.318;2023-04-15T12:10:19;101184.89;;;7.39;100.00
47811;BME280;33575;52.600;7.318;2023-04-15T12:12:51;101189.33;;;7.39;100.00
47811;BME280;33575;52.600;7.318;2023-04-15T12:15:21;101198.81;;;7.40;100.00
47811;BME280;33575;52.600;7.318;2023-04-15T12:17:53;101195.48;;;7.44;100.00
47811;BME280;33575;52.600;7.318;2023-04-15T12:20:24;101197.78;;;7.37;100.00
47811;BME280;33575;52.600;7.318;2023-04-15T12:22:52;101208.25;;;7.50;100.00
47811;BME280;33575;52.600;7.318;2023-04-15T12:25:32;101210.44;;;7.35;100.00
47811;BME280;33575;52.600;7.318;2023-04-15T12:27:54;101212.00;;;7.22;100.00
47811;BME280;33575;52.600;7.318;2023-04-15T12:30:24;101211.29;;;7.38;100.00
47811;BME280;33575;52.600;7.318;2023-04-15T12:32:56;101217.25;;;7.41;100.00
47811;BME280;33575;52.600;7.318;2023-04-15T12:35:26;101225.48;;;7.35;100.00
47811;BME280;33575;52.600;7.318;2023-04-15T12:37:56;101221.84;;;7.18;100.00
47811;BME280;33575;52.600;7.318;2023-04-15T12:40:27;101237.35;;;7.01;100.00
47811;BME280;33575;52.600;7.318;2023-04-15T12:42:58;101229.65;;;6.91;100.00
47811;BME280;33575;52.600;7.318;2023-04-15T12:45:30;101234.05;;;7.11;100.00
47811;BME280;33575;52.600;7.318;2023-04-15T12:47:59;101237.70;;;7.25;100.00
47811;BME280;33575;52.600;7.318;2023-04-15T12:50:30;101241.95;;;7.34;100.00
47811;BME280;33575;52.600;7.318;2023-04-15T12:53:01;101251.53;;;7.35;100.00
47811;BME280;33575;52.600;7.318;2023-04-15T12:55:31;101243.81;;;7.55;100.00
47811;BME280;33575;52.600;7.318;2023-04-15T12:58:02;101244.61;;;7.63;100.00
47811;BME280;33575;52.600;7.318;2023-04-15T13:00:33;101249.52;;;7.60;100.00
47811;BME280;33575;52.600;7.318;2023-04-15T13:03:07;101260.45;;;7.58;100.00
47811;BME280;33575;52.600;7.318;2023-04-15T13:05:34;101254.04;;;7.58;100.00
47811;BME280;33575;52.600;7.318;2023-04-15T13:08:04;101255.25;;;7.56;100.00
47811;BME280;33575;52.600;7.318;2023-04-15T13:10:35;101260.66;;;7.47;100.00
47811;BME280;33575;52.600;7.318;2023-04-15T13:13:05;101260.20;;;7.53;100.00
47811;BME280;33575;52.600;7.318;2023-04-15T13:15:36;101261.52;;;7.24;100.00
47811;BME280;33575;52.600;7.318;2023-04-15T13:18:06;101265.58;;;7.39;100.00
47811;BME280;33575;52.600;7.318;2023-04-15T13:20:37;101271.87;;;7.22;100.00
47811;BME280;33575;52.600;7.318;2023-04-15T13:23:08;101275.30;;;7.25;100.00